Time;durP1;ratioP1;P1;durP2;ratioP2;P2;SDS_P1;SDS_P2;PMS_P1;PMS_P2;Temp;Humidity;BMP_temperature;BMP_pressure;BME280_temperature;BME280_humidity;BME280_pressure;Samples;Min_cycle;Max_cycle;Signal;HPM_P1;HPM_P2
2023/02/21 02:15:32;;;;;;;31.42;13.88;;;;;;;;;;5035403;28;20026;-83
2023/02/21 02:18:13;;;;;;;31.50;14.52;;;;;;;;;;5032895;28;20025;-83
2023/02/21 02:21:02;;;;;;;29.90;14.38;;;;;;;;;;5027258;28;20446;-82
2023/02/21 02:23:51;;;;;;;32.38;13.82;;;;;;;;;;5024550;28;20032;-82
2023/02/21 02:26:55;;;;;;;28.67;14.02;;;;;;;;;;5032767;28;20033;-83
2023/02/21 02:29:58;;;;;;;31.38;14.13;;;;;;;;;;5033870;28;20490;-83
2023/02/21 02:32:53;;;;;;;30.38;13.43;;;;;;;;;;5032641;28;20396;-83
2023/02/21 02:35:26;;;;;;;30.92;14.57;;;;;;;;;;5032626;28;20603;-83
2023/02/21 02:38:02;;;;;;;28.55;14.30;;;;;;;;;;5031445;28;20014;-83
2023/02/21 02:40:35;;;;;;;30.92;14.38;;;;;;;;;;5033831;28;20032;-82
2023/02/21 02:43:21;;;;;;;30.38;13.75;;;;;;;;;;5036940;28;20033;-82
2023/02/21 02:46:04;;;;;;;30.23;13.95;;;;;;;;;;5032682;28;20040;-82
2023/02/21 02:48:35;;;;;;;31.38;13.20;;;;;;;;;;5032929;28;20022;-82
2023/02/21 02:51:04;;;;;;;31.40;14.38;;;;;;;;;;5033762;28;20033;-82
2023/02/21 02:53:30;;;;;;;35.35;14.13;;;;;;;;;;5031833;28;20025;-82
2023/02/21 02:56:05;;;;;;;33.20;14.88;;;;;;;;;;5033632;28;20022;-83
2023/02/21 02:58:39;;;;;;;30.05;13.60;;;;;;;;;;5032084;28;20028;-83
2023/02/21 03:01:31;;;;;;;31.83;13.60;;;;;;;;;;5031404;28;20061;-82
2023/02/21 03:04:27;;;;;;;31.27;13.95;;;;;;;;;;5051580;28;20045;-82
2023/02/21 03:07:13;;;;;;;32.58;14.10;;;;;;;;;;5032855;28;20075;-83
2023/02/21 03:10:00;;;;;;;29.88;13.57;;;;;;;;;;5032153;28;20116;-83
2023/02/21 03:12:35;;;;;;;33.05;15.30;;;;;;;;;;5031616;28;20056;-82
2023/02/21 03:15:16;;;;;;;35.90;14.85;;;;;;;;;;5023859;28;20060;-82
2023/02/21 03:17:48;;;;;;;33.08;14.68;;;;;;;;;;5031777;28;20139;-83
2023/02/21 03:20:14;;;;;;;30.13;14.35;;;;;;;;;;5032955;28;20026;-82
2023/02/21 03:22:43;;;;;;;32.85;13.95;;;;;;;;;;5018551;28;20082;-82
2023/02/21 03:25:10;;;;;;;33.65;14.35;;;;;;;;;;5033049;28;20032;-83
2023/02/21 03:27:38;;;;;;;33.85;14.25;;;;;;;;;;5032639;28;20132;-83
2023/02/21 03:30:06;;;;;;;34.58;14.55;;;;;;;;;;5036905;28;20155;-82
2023/02/21 03:32:45;;;;;;;35.67;14.52;;;;;;;;;;5026773;28;20030;-83
2023/02/21 03:35:10;;;;;;;35.63;15.00;;;;;;;;;;5031825;28;20032;-83
2023/02/21 03:37:41;;;;;;;37.63;15.32;;;;;;;;;;5029247;28;20385;-83
2023/02/21 03:40:15;;;;;;;32.78;14.45;;;;;;;;;;5021818;28;20474;-82
2023/02/21 03:42:41;;;;;;;34.35;14.18;;;;;;;;;;5026349;28;20021;-82
2023/02/21 03:45:06;;;;;;;34.97;14.98;;;;;;;;;;5039222;28;20032;-82
2023/02/21 03:47:32;;;;;;;39.58;15.48;;;;;;;;;;5025550;28;20044;-83
2023/02/21 03:49:57;;;;;;;35.83;15.25;;;;;;;;;;5032683;28;20025;-82
2023/02/21 03:52:22;;;;;;;38.83;15.80;;;;;;;;;;5032641;28;20025;-82
2023/02/21 03:54:48;;;;;;;39.10;16.40;;;;;;;;;;5031362;28;20062;-82
2023/02/21 03:57:13;;;;;;;33.17;14.90;;;;;;;;;;5025580;28;20034;-83
2023/02/21 03:59:39;;;;;;;38.13;14.80;;;;;;;;;;5027864;28;20021;-82
2023/02/21 04:02:04;;;;;;;36.00;14.35;;;;;;;;;;5024828;28;20033;-82
2023/02/21 04:04:30;;;;;;;41.75;15.27;;;;;;;;;;5032308;28;20021;-82
2023/02/21 04:06:55;;;;;;;39.13;16.52;;;;;;;;;;5031914;28;20067;-82
2023/02/21 04:09:22;;;;;;;36.80;15.98;;;;;;;;;;5035596;28;20033;-82
2023/02/21 04:11:47;;;;;;;38.25;15.60;;;;;;;;;;5032410;28;20024;-82
2023/02/21 04:14:12;;;;;;;37.95;15.98;;;;;;;;;;5032537;28;20041;-82
2023/02/21 04:16:38;;;;;;;36.33;15.48;;;;;;;;;;5030135;28;20037;-83
2023/02/21 04:19:04;;;;;;;40.83;17.05;;;;;;;;;;5032012;28;20401;-83
2023/02/21 04:21:29;;;;;;;40.75;16.20;;;;;;;;;;5032444;28;20025;-83
2023/02/21 04:23:55;;;;;;;37.30;15.75;;;;;;;;;;5032551;28;20021;-83
2023/02/21 04:26:21;;;;;;;38.60;15.90;;;;;;;;;;5026681;28;20024;-83
2023/02/21 04:28:47;;;;;;;38.58;15.73;;;;;;;;;;5030287;28;20470;-83
2023/02/21 04:31:14;;;;;;;36.00;14.30;;;;;;;;;;5032300;28;20033;-83
2023/02/21 04:33:40;;;;;;;36.58;14.63;;;;;;;;;;5032207;28;20089;-82
2023/02/21 04:36:05;;;;;;;38.03;15.95;;;;;;;;;;5019629;28;20401;-82
2023/02/21 04:38:31;;;;;;;33.85;15.27;;;;;;;;;;5031791;28;20030;-83
2023/02/21 04:40:56;;;;;;;40.45;16.02;;;;;;;;;;5032241;28;20036;-83
2023/02/21 04:43:22;;;;;;;35.53;14.68;;;;;;;;;;5030844;28;20029;-82
2023/02/21 04:45:47;;;;;;;39.15;15.55;;;;;;;;;;5015492;28;20022;-83
2023/02/21 04:48:12;;;;;;;37.28;15.27;;;;;;;;;;5032393;28;20021;-82
2023/02/21 04:50:38;;;;;;;36.83;14.15;;;;;;;;;;5032034;28;20033;-82
2023/02/21 04:53:03;;;;;;;32.80;14.68;;;;;;;;;;5030149;28;20116;-83
2023/02/21 04:55:28;;;;;;;34.10;15.00;;;;;;;;;;5035084;28;20037;-82
2023/02/21 04:57:54;;;;;;;33.05;13.80;;;;;;;;;;5034042;28;20138;-83
2023/02/21 05:00:19;;;;;;;35.33;14.05;;;;;;;;;;5032495;28;20028;-82
2023/02/21 05:02:46;;;;;;;37.83;16.27;;;;;;;;;;5029301;28;20021;-83
2023/02/21 05:05:11;;;;;;;33.97;14.70;;;;;;;;;;5034496;28;20029;-82
2023/02/21 05:07:37;;;;;;;37.03;14.98;;;;;;;;;;5035971;28;20071;-83
2023/02/21 05:10:04;;;;;;;33.92;14.85;;;;;;;;;;5033247;28;20029;-83
2023/02/21 05:12:30;;;;;;;39.25;15.18;;;;;;;;;;5035570;28;20393;-83
2023/02/21 05:14:56;;;;;;;36.75;15.07;;;;;;;;;;5035483;28;20060;-83
2023/02/21 05:17:21;;;;;;;36.70;15.90;;;;;;;;;;5038927;28;20485;-83
2023/02/21 05:19:47;;;;;;;35.25;14.55;;;;;;;;;;5029975;28;20045;-82
2023/02/21 05:22:12;;;;;;;35.20;15.30;;;;;;;;;;5035858;28;20067;-83
2023/02/21 05:24:45;;;;;;;33.53;14.70;;;;;;;;;;5033960;28;20033;-83
2023/02/21 05:27:14;;;;;;;38.30;15.23;;;;;;;;;;5035390;28;20394;-83
2023/02/21 05:29:41;;;;;;;38.20;14.52;;;;;;;;;;5033160;28;20060;-82
2023/02/21 05:32:06;;;;;;;37.72;15.60;;;;;;;;;;5035195;28;20381;-82
2023/02/21 05:34:32;;;;;;;38.38;15.57;;;;;;;;;;5035068;28;20018;-83
2023/02/21 05:36:57;;;;;;;34.15;14.20;;;;;;;;;;5035144;28;20151;-82
2023/02/21 05:39:23;;;;;;;34.63;15.32;;;;;;;;;;5034914;28;20104;-83
2023/02/21 05:41:49;;;;;;;32.80;13.60;;;;;;;;;;5033322;28;20118;-82
2023/02/21 05:44:15;;;;;;;34.15;13.95;;;;;;;;;;5033604;28;20517;-83
2023/02/21 05:46:41;;;;;;;29.48;13.40;;;;;;;;;;5031611;28;20120;-82
2023/02/21 05:49:06;;;;;;;32.15;14.10;;;;;;;;;;5036347;28;20175;-83
2023/02/21 05:51:36;;;;;;;32.45;14.75;;;;;;;;;;5034897;28;20028;-83
2023/02/21 05:54:03;;;;;;;35.70;13.98;;;;;;;;;;5030786;28;20489;-83
2023/02/21 05:56:28;;;;;;;33.20;14.57;;;;;;;;;;5036828;28;20021;-82
2023/02/21 05:58:53;;;;;;;35.78;14.07;;;;;;;;;;5033009;28;20397;-82
2023/02/21 06:01:19;;;;;;;33.35;13.63;;;;;;;;;;5030960;28;20474;-82
2023/02/21 06:03:44;;;;;;;34.03;14.38;;;;;;;;;;5034549;28;20339;-83
2023/02/21 06:06:09;;;;;;;34.60;14.18;;;;;;;;;;5033154;28;20470;-83
2023/02/21 06:08:46;;;;;;;35.80;13.98;;;;;;;;;;5025025;28;20021;-83
2023/02/21 06:11:11;;;;;;;34.13;14.18;;;;;;;;;;5039934;28;20481;-83
2023/02/21 06:13:37;;;;;;;36.83;14.88;;;;;;;;;;5034636;28;20341;-83
2023/02/21 06:16:02;;;;;;;36.88;14.68;;;;;;;;;;5034402;28;20017;-82
2023/02/21 06:18:28;;;;;;;36.50;14.65;;;;;;;;;;5027922;28;20470;-82
2023/02/21 06:20:53;;;;;;;31.23;13.85;;;;;;;;;;5035126;28;20499;-82
2023/02/21 06:23:19;;;;;;;33.58;14.63;;;;;;;;;;5035669;28;20021;-83
2023/02/21 06:25:44;;;;;;;41.22;15.95;;;;;;;;;;5029217;28;20033;-82
2023/02/21 06:28:09;;;;;;;38.85;15.15;;;;;;;;;;5024540;28;20049;-83
2023/02/21 06:30:35;;;;;;;40.17;15.20;;;;;;;;;;5028949;28;20112;-83
2023/02/21 06:33:00;;;;;;;36.92;15.43;;;;;;;;;;5032866;28;20363;-82
2023/02/21 06:35:26;;;;;;;36.08;15.02;;;;;;;;;;5031603;28;20655;-83
2023/02/21 06:37:51;;;;;;;34.92;14.63;;;;;;;;;;5034019;28;20091;-83
2023/02/21 06:40:17;;;;;;;35.03;14.90;;;;;;;;;;5032280;28;21496;-82
2023/02/21 06:42:42;;;;;;;34.80;14.48;;;;;;;;;;5033482;28;20029;-82
2023/02/21 06:45:08;;;;;;;35.15;13.85;;;;;;;;;;5033841;28;20026;-82
2023/02/21 06:47:33;;;;;;;30.02;13.77;;;;;;;;;;5033914;28;20025;-83
2023/02/21 06:49:58;;;;;;;39.83;15.25;;;;;;;;;;5035550;28;20112;-83
2023/02/21 06:52:24;;;;;;;35.78;14.38;;;;;;;;;;5023003;28;20079;-83
2023/02/21 06:54:50;;;;;;;35.42;14.90;;;;;;;;;;5033498;28;20033;-81
2023/02/21 06:57:15;;;;;;;33.53;14.18;;;;;;;;;;5032334;28;20064;-83
2023/02/21 06:59:41;;;;;;;36.60;14.90;;;;;;;;;;5030179;28;20021;-82
2023/02/21 07:02:15;;;;;;;34.05;15.18;;;;;;;;;;5027881;28;20025;-82
2023/02/21 07:04:40;;;;;;;33.58;13.73;;;;;;;;;;5033382;28;20021;-82
2023/02/21 07:07:06;;;;;;;30.00;13.35;;;;;;;;;;5029065;28;20116;-83
2023/02/21 07:09:31;;;;;;;33.97;13.90;;;;;;;;;;5029276;28;20021;-83
2023/02/21 07:11:56;;;;;;;33.95;13.07;;;;;;;;;;5034618;28;20029;-83
2023/02/21 07:14:22;;;;;;;31.45;13.38;;;;;;;;;;5033329;28;20030;-82
2023/02/21 07:16:47;;;;;;;27.38;13.07;;;;;;;;;;5032093;28;20021;-83
2023/02/21 07:19:14;;;;;;;28.70;12.40;;;;;;;;;;5033049;28;20049;-83
2023/02/21 07:21:40;;;;;;;33.30;13.77;;;;;;;;;;5032159;28;20047;-83
2023/02/21 07:24:05;;;;;;;31.02;13.48;;;;;;;;;;5033163;28;20025;-82
2023/02/21 07:26:31;;;;;;;31.40;13.98;;;;;;;;;;5033090;28;20021;-83
2023/02/21 07:28:56;;;;;;;29.08;12.38;;;;;;;;;;5033042;28;20108;-83
2023/02/21 07:31:21;;;;;;;31.50;12.82;;;;;;;;;;5032761;28;20029;-83
2023/02/21 07:33:47;;;;;;;28.98;12.30;;;;;;;;;;5032781;28;20545;-83
2023/02/21 07:36:12;;;;;;;27.63;12.82;;;;;;;;;;5031686;28;20025;-82
2023/02/21 07:38:38;;;;;;;28.45;12.20;;;;;;;;;;5033124;28;20060;-83
2023/02/21 07:41:03;;;;;;;28.55;12.20;;;;;;;;;;5031077;28;20074;-82
2023/02/21 07:43:30;;;;;;;24.27;11.65;;;;;;;;;;5032386;28;20022;-83
2023/02/21 07:45:56;;;;;;;27.42;11.77;;;;;;;;;;5031178;28;20438;-83
2023/02/21 07:48:22;;;;;;;25.40;11.25;;;;;;;;;;5029852;28;20051;-83
2023/02/21 07:50:48;;;;;;;26.75;11.77;;;;;;;;;;5033465;28;20053;-83
2023/02/21 07:53:14;;;;;;;27.02;11.50;;;;;;;;;;5032089;28;20025;-82
2023/02/21 07:55:40;;;;;;;28.92;12.00;;;;;;;;;;5023857;28;20066;-82
2023/02/21 07:58:06;;;;;;;27.42;11.60;;;;;;;;;;5031086;28;20025;-82
2023/02/21 08:00:32;;;;;;;25.92;11.30;;;;;;;;;;5028836;28;20047;-82
2023/02/21 08:02:58;;;;;;;27.88;11.27;;;;;;;;;;5031138;28;20029;-82
2023/02/21 08:05:24;;;;;;;25.85;11.00;;;;;;;;;;5032685;28;20017;-82
2023/02/21 08:07:49;;;;;;;22.77;11.00;;;;;;;;;;5032562;28;20044;-82
2023/02/21 08:10:21;;;;;;;27.75;11.20;;;;;;;;;;5031591;28;20030;-82
2023/02/21 08:12:46;;;;;;;24.83;10.60;;;;;;;;;;5030505;28;20754;-82
2023/02/21 08:15:12;;;;;;;26.25;11.25;;;;;;;;;;5031843;28;20036;-82
2023/02/21 08:17:37;;;;;;;26.73;11.02;;;;;;;;;;5029764;28;20230;-83
2023/02/21 08:20:03;;;;;;;25.00;11.07;;;;;;;;;;5032518;28;20024;-82
2023/02/21 08:22:29;;;;;;;23.58;10.23;;;;;;;;;;5032219;28;20026;-83
2023/02/21 08:24:54;;;;;;;31.20;11.00;;;;;;;;;;5032472;28;20117;-82
2023/02/21 08:27:20;;;;;;;25.58;10.98;;;;;;;;;;5027092;28;20033;-82
2023/02/21 08:29:48;;;;;;;24.08;9.68;;;;;;;;;;5027664;28;20143;-82
2023/02/21 08:32:14;;;;;;;23.35;9.25;;;;;;;;;;5035757;28;20034;-82
2023/02/21 08:34:39;;;;;;;24.02;10.45;;;;;;;;;;5028331;28;20048;-82
2023/02/21 08:37:13;;;;;;;22.80;9.60;;;;;;;;;;5034970;28;20025;-82
2023/02/21 08:39:38;;;;;;;20.95;9.65;;;;;;;;;;5032631;28;20029;-82
2023/02/21 08:42:04;;;;;;;21.90;9.32;;;;;;;;;;5032240;28;20030;-82
2023/02/21 08:44:29;;;;;;;20.83;8.98;;;;;;;;;;5027086;28;20112;-82
2023/02/21 08:46:54;;;;;;;22.23;9.73;;;;;;;;;;5036066;28;20033;-82
2023/02/21 08:49:20;;;;;;;22.17;9.65;;;;;;;;;;5040889;28;20111;-82
2023/02/21 08:51:46;;;;;;;26.27;9.18;;;;;;;;;;5038112;28;20370;-83
2023/02/21 08:54:12;;;;;;;23.00;9.38;;;;;;;;;;5033353;28;20025;-83
2023/02/21 08:56:37;;;;;;;22.95;9.63;;;;;;;;;;5033231;28;20037;-82
2023/02/21 08:59:04;;;;;;;19.52;8.70;;;;;;;;;;5033586;28;20021;-82
2023/02/21 09:01:32;;;;;;;23.00;8.70;;;;;;;;;;5034672;28;20032;-82
2023/02/21 09:03:58;;;;;;;21.17;8.82;;;;;;;;;;5029415;28;20029;-82
2023/02/21 09:06:23;;;;;;;21.98;8.52;;;;;;;;;;5034905;28;20152;-82
2023/02/21 09:08:48;;;;;;;20.95;8.75;;;;;;;;;;5034989;28;20022;-82
2023/02/21 09:11:14;;;;;;;24.30;8.48;;;;;;;;;;5034320;28;20130;-82
2023/02/21 09:13:40;;;;;;;19.05;7.93;;;;;;;;;;5034179;28;20033;-82
2023/02/21 09:16:06;;;;;;;18.10;7.35;;;;;;;;;;5035609;28;20527;-82
2023/02/21 09:18:31;;;;;;;19.42;7.90;;;;;;;;;;5035317;28;20029;-82
2023/02/21 09:20:58;;;;;;;17.42;7.60;;;;;;;;;;5035234;28;20171;-81
2023/02/21 09:23:25;;;;;;;17.83;7.78;;;;;;;;;;5028857;28;20017;-81
2023/02/21 09:25:50;;;;;;;18.48;8.40;;;;;;;;;;5034731;28;20025;-82
2023/02/21 09:28:17;;;;;;;20.33;7.72;;;;;;;;;;5035094;28;20126;-81
2023/02/21 09:30:42;;;;;;;19.02;7.88;;;;;;;;;;5034019;28;20025;-82
2023/02/21 09:33:09;;;;;;;20.30;8.57;;;;;;;;;;5032591;28;20481;-81
2023/02/21 09:35:35;;;;;;;17.88;7.85;;;;;;;;;;5038176;28;20525;-82
2023/02/21 09:38:01;;;;;;;19.58;7.95;;;;;;;;;;5021636;28;20109;-82
2023/02/21 09:40:40;;;;;;;18.65;7.97;;;;;;;;;;5031406;28;20363;-81
2023/02/21 09:43:43;;;;;;;16.25;7.32;;;;;;;;;;5035311;28;20489;-82
2023/02/21 09:46:19;;;;;;;19.05;7.65;;;;;;;;;;5031920;28;20026;-82
2023/02/21 09:48:46;;;;;;;15.35;6.97;;;;;;;;;;5033167;28;20021;-82
2023/02/21 09:51:12;;;;;;;17.33;7.70;;;;;;;;;;5030711;28;20021;-82
2023/02/21 09:53:44;;;;;;;15.05;7.07;;;;;;;;;;5029926;28;20466;-82
2023/02/21 09:56:30;;;;;;;19.33;7.50;;;;;;;;;;5028202;28;20091;-82
2023/02/21 09:58:57;;;;;;;17.45;7.63;;;;;;;;;;5026698;28;20104;-82
2023/02/21 10:01:50;;;;;;;15.05;7.78;;;;;;;;;;5032373;28;20125;-82
2023/02/21 10:04:41;;;;;;;15.82;6.43;;;;;;;;;;5023638;28;20079;-82
2023/02/21 10:07:20;;;;;;;17.70;6.53;;;;;;;;;;5000129;28;20517;-82
2023/02/21 10:09:56;;;;;;;16.80;7.28;;;;;;;;;;5029259;28;20028;-82
2023/02/21 10:12:32;;;;;;;15.52;7.18;;;;;;;;;;5034397;28;20025;-82
2023/02/21 10:15:20;;;;;;;14.93;6.30;;;;;;;;;;5033282;28;20764;-82
2023/02/21 10:17:56;;;;;;;13.43;5.35;;;;;;;;;;5029346;28;20032;-82
2023/02/21 10:20:30;;;;;;;13.38;5.82;;;;;;;;;;5030168;28;20111;-82
2023/02/21 10:22:56;;;;;;;16.15;6.38;;;;;;;;;;5030057;28;20033;-82
2023/02/21 10:25:28;;;;;;;14.48;6.10;;;;;;;;;;5034348;28;20113;-82
2023/02/21 10:27:54;;;;;;;15.60;6.30;;;;;;;;;;5032376;28;20037;-82
2023/02/21 10:30:28;;;;;;;15.68;6.20;;;;;;;;;;5032516;28;20556;-82
2023/02/21 10:32:54;;;;;;;15.52;6.38;;;;;;;;;;5032218;28;20021;-82
2023/02/21 10:35:19;;;;;;;16.15;6.70;;;;;;;;;;5032102;28;20088;-82
2023/02/21 10:37:58;;;;;;;16.40;6.57;;;;;;;;;;5033838;28;20025;-82
2023/02/21 10:40:48;;;;;;;17.90;7.10;;;;;;;;;;5032809;28;20029;-82
2023/02/21 10:43:18;;;;;;;16.35;6.65;;;;;;;;;;5030919;28;20101;-81
2023/02/21 10:46:00;;;;;;;15.40;6.40;;;;;;;;;;5027344;28;20046;-82
2023/02/21 10:48:31;;;;;;;15.82;7.10;;;;;;;;;;5028752;28;20474;-81
2023/02/21 10:50:56;;;;;;;16.60;6.65;;;;;;;;;;5033809;28;20022;-82
2023/02/21 10:53:34;;;;;;;14.48;6.43;;;;;;;;;;5032042;28;20032;-82
2023/02/21 10:56:15;;;;;;;15.20;6.65;;;;;;;;;;5033560;28;20067;-81
2023/02/21 10:58:47;;;;;;;16.17;6.47;;;;;;;;;;5027537;28;20108;-83
2023/02/21 11:01:16;;;;;;;14.02;6.20;;;;;;;;;;5032255;28;20025;-82
2023/02/21 11:03:45;;;;;;;16.45;7.53;;;;;;;;;;5032188;28;20052;-82
2023/02/21 11:06:26;;;;;;;15.70;6.68;;;;;;;;;;5025509;28;20030;-82
2023/02/21 11:08:52;;;;;;;13.70;6.47;;;;;;;;;;5035374;28;20439;-82
2023/02/21 11:11:31;;;;;;;15.15;6.70;;;;;;;;;;5033426;28;20045;-82
2023/02/21 11:14:18;;;;;;;11.13;5.60;;;;;;;;;;5033059;28;20044;-82
2023/02/21 11:16:43;;;;;;;15.73;6.25;;;;;;;;;;5026432;28;20048;-82
2023/02/21 11:19:13;;;;;;;14.45;6.47;;;;;;;;;;5032930;28;20474;-82
2023/02/21 11:21:41;;;;;;;16.27;6.88;;;;;;;;;;5031908;28;20481;-82
2023/02/21 11:24:07;;;;;;;14.32;6.20;;;;;;;;;;5034669;28;20108;-82
2023/02/21 11:26:47;;;;;;;13.73;6.10;;;;;;;;;;5033155;28;20031;-82
2023/02/21 11:29:17;;;;;;;14.75;6.07;;;;;;;;;;5033066;28;20093;-82
2023/02/21 11:31:43;;;;;;;15.05;6.72;;;;;;;;;;5030971;28;20540;-82
2023/02/21 11:34:12;;;;;;;16.67;7.32;;;;;;;;;;5033224;28;20022;-82
2023/02/21 11:36:42;;;;;;;14.75;6.78;;;;;;;;;;5032285;28;20017;-82
2023/02/21 11:39:17;;;;;;;15.70;6.63;;;;;;;;;;5031578;28;20017;-82
2023/02/21 11:41:46;;;;;;;15.85;6.80;;;;;;;;;;5031830;28;20025;-82
2023/02/21 11:44:32;;;;;;;14.68;6.13;;;;;;;;;;5032782;28;20024;-83
2023/02/21 11:47:35;;;;;;;17.52;7.13;;;;;;;;;;5025761;28;20018;-82
2023/02/21 11:50:07;;;;;;;15.20;6.40;;;;;;;;;;5031391;28;20060;-82
2023/02/21 11:52:48;;;;;;;16.75;7.60;;;;;;;;;;5031601;28;20023;-83
2023/02/21 11:55:20;;;;;;;15.90;7.07;;;;;;;;;;5024715;28;20021;-82
2023/02/21 11:57:48;;;;;;;18.20;6.82;;;;;;;;;;5030620;28;20112;-82
2023/02/21 12:01:01;;;;;;;16.70;7.50;;;;;;;;;;5032605;28;20100;-82
2023/02/21 12:03:53;;;;;;;15.15;6.78;;;;;;;;;;5018164;28;20099;-82
2023/02/21 12:06:28;;;;;;;17.38;7.13;;;;;;;;;;5031429;28;20032;-82
2023/02/21 12:09:24;;;;;;;17.23;6.85;;;;;;;;;;5026918;28;20022;-82
2023/02/21 12:12:08;;;;;;;15.90;6.93;;;;;;;;;;5032717;28;20384;-82
2023/02/21 12:14:45;;;;;;;15.93;7.03;;;;;;;;;;5030263;28;20536;-83
2023/02/21 12:17:34;;;;;;;14.80;6.22;;;;;;;;;;5032324;28;20032;-82
2023/02/21 12:20:20;;;;;;;16.38;7.40;;;;;;;;;;5027550;28;20112;-80
2023/02/21 12:23:05;;;;;;;16.33;6.68;;;;;;;;;;5023157;28;20437;-82
2023/02/21 12:25:43;;;;;;;14.15;6.65;;;;;;;;;;5035831;28;20441;-82
2023/02/21 12:28:33;;;;;;;19.08;7.40;;;;;;;;;;5031597;28;20017;-82
2023/02/21 12:31:17;;;;;;;15.40;7.15;;;;;;;;;;5026449;28;20367;-82
2023/02/21 12:33:48;;;;;;;18.35;7.32;;;;;;;;;;5023615;28;20103;-82
2023/02/21 12:36:28;;;;;;;16.75;7.00;;;;;;;;;;5035082;28;20042;-83
2023/02/21 12:39:15;;;;;;;16.67;6.95;;;;;;;;;;5026999;28;20151;-82
2023/02/21 12:42:28;;;;;;;17.77;7.20;;;;;;;;;;5030899;28;20029;-82
2023/02/21 12:45:30;;;;;;;16.38;6.70;;;;;;;;;;5000975;28;20041;-83
2023/02/21 12:48:01;;;;;;;12.13;5.57;;;;;;;;;;5013022;28;20052;-82
2023/02/21 12:50:32;;;;;;;13.73;6.43;;;;;;;;;;5030931;28;20021;-82
2023/02/21 12:53:10;;;;;;;16.90;6.80;;;;;;;;;;5026945;28;20505;-82
2023/02/21 12:55:44;;;;;;;16.75;7.13;;;;;;;;;;5023254;28;20021;-82
2023/02/21 12:58:12;;;;;;;16.20;7.20;;;;;;;;;;5029561;28;20037;-81
2023/02/21 13:00:43;;;;;;;15.32;6.70;;;;;;;;;;5030887;28;20425;-82
2023/02/21 13:03:20;;;;;;;16.10;7.10;;;;;;;;;;5032105;28;20032;-82
2023/02/21 13:05:56;;;;;;;17.23;6.53;;;;;;;;;;5022008;28;20022;-83
2023/02/21 13:08:53;;;;;;;15.68;6.70;;;;;;;;;;5026149;28;20482;-82
2023/02/21 13:11:31;;;;;;;15.07;6.45;;;;;;;;;;5028373;28;20031;-82
2023/02/21 13:13:58;;;;;;;20.65;8.75;;;;;;;;;;5031934;28;20036;-82
2023/02/21 13:16:23;;;;;;;17.15;7.97;;;;;;;;;;5036231;28;20113;-82
2023/02/21 13:18:58;;;;;;;18.23;6.78;;;;;;;;;;5034230;28;20106;-82
2023/02/21 13:21:38;;;;;;;15.52;6.70;;;;;;;;;;5038026;28;20388;-82
2023/02/21 13:24:31;;;;;;;16.48;6.45;;;;;;;;;;5030909;28;20164;-82
2023/02/21 13:27:09;;;;;;;18.53;7.10;;;;;;;;;;5034186;28;20049;-82
2023/02/21 13:29:37;;;;;;;16.27;7.45;;;;;;;;;;5033696;28;20254;-82
2023/02/21 13:32:20;;;;;;;18.67;8.05;;;;;;;;;;5029109;28;20025;-83
2023/02/21 13:34:53;;;;;;;17.27;6.75;;;;;;;;;;5034021;28;20390;-82
2023/02/21 13:37:25;;;;;;;19.13;7.75;;;;;;;;;;5029607;28;20445;-82
2023/02/21 13:40:06;;;;;;;14.73;7.15;;;;;;;;;;5029139;28;20470;-82
2023/02/21 13:42:35;;;;;;;14.57;6.30;;;;;;;;;;5032942;28;20044;-82
2023/02/21 13:45:21;;;;;;;14.88;6.45;;;;;;;;;;5034678;28;20083;-82
2023/02/21 13:47:56;;;;;;;13.60;6.22;;;;;;;;;;5035132;28;20406;-82
2023/02/21 13:50:35;;;;;;;17.73;7.43;;;;;;;;;;5027518;28;20026;-82
2023/02/21 13:53:32;;;;;;;14.93;7.20;;;;;;;;;;5031016;28;20045;-82
2023/02/21 13:55:58;;;;;;;14.18;6.60;;;;;;;;;;5023255;28;20110;-82
2023/02/21 13:58:32;;;;;;;16.80;7.93;;;;;;;;;;5033340;28;20029;-82
2023/02/21 14:01:27;;;;;;;16.73;6.97;;;;;;;;;;5034471;28;20489;-82
2023/02/21 14:03:53;;;;;;;15.35;6.95;;;;;;;;;;5026279;28;20029;-82
2023/02/21 14:06:37;;;;;;;15.20;6.40;;;;;;;;;;5029188;28;20092;-83
2023/02/21 14:09:09;;;;;;;15.30;6.57;;;;;;;;;;5026156;28;20024;-82
2023/02/21 14:11:38;;;;;;;13.77;6.80;;;;;;;;;;5019933;28;20392;-82
2023/02/21 14:14:20;;;;;;;14.40;6.93;;;;;;;;;;5033500;28;20029;-82
2023/02/21 14:16:51;;;;;;;16.83;7.10;;;;;;;;;;5034380;28;20025;-83
2023/02/21 14:19:24;;;;;;;16.38;6.68;;;;;;;;;;5033451;28;20091;-82
2023/02/21 14:22:12;;;;;;;18.98;6.78;;;;;;;;;;5035231;28;20064;-81
2023/02/21 14:24:47;;;;;;;13.93;5.60;;;;;;;;;;5027658;28;20068;-82
2023/02/21 14:27:12;;;;;;;12.43;5.88;;;;;;;;;;5033659;28;20505;-83
2023/02/21 14:29:44;;;;;;;12.77;6.45;;;;;;;;;;5030205;28;20038;-82
2023/02/21 14:32:10;;;;;;;10.02;5.00;;;;;;;;;;5037651;28;20432;-83
2023/02/21 14:34:48;;;;;;;10.35;5.13;;;;;;;;;;5034050;28;20026;-83
2023/02/21 14:37:34;;;;;;;13.02;5.32;;;;;;;;;;5034598;28;20061;-83
2023/02/21 14:40:09;;;;;;;11.82;5.03;;;;;;;;;;5026147;28;20046;-82
2023/02/21 14:42:45;;;;;;;11.02;4.85;;;;;;;;;;5033351;28;20053;-82
2023/02/21 14:45:10;;;;;;;11.88;5.47;;;;;;;;;;5029686;28;20036;-82
2023/02/21 14:48:00;;;;;;;10.18;5.25;;;;;;;;;;5027498;28;20017;-83
2023/02/21 14:50:44;;;;;;;11.60;5.60;;;;;;;;;;5031563;28;20034;-83
2023/02/21 14:53:26;;;;;;;10.02;5.20;;;;;;;;;;5020952;28;20028;-82
2023/02/21 14:56:16;;;;;;;11.25;5.45;;;;;;;;;;5030523;28;20084;-83
2023/02/21 14:59:15;;;;;;;10.80;5.40;;;;;;;;;;5033299;28;20033;-82
2023/02/21 15:01:46;;;;;;;12.20;5.90;;;;;;;;;;5023846;28;20037;-82
2023/02/21 15:04:26;;;;;;;12.02;5.63;;;;;;;;;;5033100;28;20021;-82
2023/02/21 15:07:02;;;;;;;11.40;5.70;;;;;;;;;;5032048;28;20040;-82
2023/02/21 15:09:27;;;;;;;10.90;5.05;;;;;;;;;;5025510;28;20886;-82
2023/02/21 15:11:55;;;;;;;11.70;5.57;;;;;;;;;;5026330;28;20065;-82
2023/02/21 15:14:32;;;;;;;13.23;6.07;;;;;;;;;;5031592;28;20094;-82
2023/02/21 15:17:00;;;;;;;13.77;6.85;;;;;;;;;;5032609;28;20040;-83
2023/02/21 15:19:31;;;;;;;12.45;6.03;;;;;;;;;;5031981;28;20022;-83
2023/02/21 15:22:14;;;;;;;12.63;6.60;;;;;;;;;;5022606;28;20025;-83
2023/02/21 15:24:39;;;;;;;15.97;7.03;;;;;;;;;;5031566;28;20240;-82
2023/02/21 15:27:12;;;;;;;11.27;5.63;;;;;;;;;;5033137;28;20345;-82
2023/02/21 15:29:39;;;;;;;11.27;5.93;;;;;;;;;;5030791;28;20191;-83
2023/02/21 15:32:05;;;;;;;14.00;6.95;;;;;;;;;;5031856;28;20087;-83
2023/02/21 15:34:32;;;;;;;15.88;7.53;;;;;;;;;;5031773;28;20032;-82
2023/02/21 15:37:11;;;;;;;12.55;5.70;;;;;;;;;;5032685;28;20022;-83
2023/02/21 15:39:41;;;;;;;14.55;7.22;;;;;;;;;;5029858;28;20116;-82
2023/02/21 15:42:10;;;;;;;16.40;7.95;;;;;;;;;;5032714;28;20017;-83
2023/02/21 15:44:52;;;;;;;16.02;6.82;;;;;;;;;;5032966;28;20506;-83
2023/02/21 15:47:21;;;;;;;14.50;8.03;;;;;;;;;;5045308;28;20033;-82
2023/02/21 15:50:07;;;;;;;16.70;7.93;;;;;;;;;;5031608;28;20148;-82
2023/02/21 15:52:45;;;;;;;14.38;6.03;;;;;;;;;;5024682;28;20021;-82
2023/02/21 15:55:13;;;;;;;11.15;5.40;;;;;;;;;;5034377;28;20030;-83
2023/02/21 15:57:38;;;;;;;12.30;5.97;;;;;;;;;;5021166;28;20041;-83
2023/02/21 16:00:18;;;;;;;11.88;6.00;;;;;;;;;;5028405;28;20026;-82
2023/02/21 16:02:44;;;;;;;12.20;5.75;;;;;;;;;;5027635;28;20083;-83
2023/02/21 16:05:29;;;;;;;12.13;5.93;;;;;;;;;;5031526;28;20021;-82
2023/02/21 16:08:04;;;;;;;12.25;5.95;;;;;;;;;;5030569;28;20511;-82
2023/02/21 16:10:30;;;;;;;11.70;5.45;;;;;;;;;;5031685;28;20087;-83
2023/02/21 16:12:59;;;;;;;14.23;7.07;;;;;;;;;;5031355;28;20065;-82
2023/02/21 16:15:26;;;;;;;13.38;6.20;;;;;;;;;;5028571;28;20467;-83
2023/02/21 16:17:59;;;;;;;15.82;7.40;;;;;;;;;;5024695;28;20367;-83
2023/02/21 16:20:43;;;;;;;;;;;;;;;;;;5031712;28;20030;-83
2023/02/21 16:23:40;;;;;;;11.77;5.78;;;;;;;;;;5028183;28;19910;-83
2023/02/21 16:26:09;;;;;;;11.93;5.40;;;;;;;;;;5028162;28;20377;-82
2023/02/21 16:28:36;;;;;;;11.95;5.68;;;;;;;;;;5030772;28;20061;-82
2023/02/21 16:31:05;;;;;;;11.35;5.53;;;;;;;;;;5032366;28;20057;-82
2023/02/21 16:33:32;;;;;;;13.15;5.65;;;;;;;;;;5031313;28;20025;-83
2023/02/21 16:35:59;;;;;;;13.07;5.78;;;;;;;;;;5034498;28;20026;-83
2023/02/21 16:38:25;;;;;;;12.10;5.85;;;;;;;;;;5027516;28;20104;-83
2023/02/21 16:40:52;;;;;;;13.95;5.25;;;;;;;;;;5032019;28;20492;-83
2023/02/21 16:43:21;;;;;;;11.25;5.50;;;;;;;;;;5032134;28;20036;-83
2023/02/21 16:45:47;;;;;;;14.48;6.47;;;;;;;;;;5029973;28;20405;-83
2023/02/21 16:48:23;;;;;;;14.23;5.90;;;;;;;;;;5026464;28;20477;-83
2023/02/21 16:50:49;;;;;;;16.27;6.82;;;;;;;;;;5032813;28;20433;-82
2023/02/21 16:53:16;;;;;;;17.42;7.88;;;;;;;;;;5033703;28;20022;-82
2023/02/21 16:55:42;;;;;;;18.15;7.88;;;;;;;;;;5032759;28;20569;-83
2023/02/21 16:58:21;;;;;;;20.75;8.30;;;;;;;;;;5035562;28;20090;-83
2023/02/21 17:00:47;;;;;;;16.80;7.93;;;;;;;;;;5035668;28;20028;-83
2023/02/21 17:03:12;;;;;;;18.52;8.48;;;;;;;;;;5030131;28;20022;-83
2023/02/21 17:05:38;;;;;;;23.38;9.38;;;;;;;;;;5035880;28;20083;-83